createdAt,value
2023-02-06T00:00:02.277Z,33.35
2023-02-06T00:02:28.608Z,33.55
2023-02-06T00:04:54.948Z,33.55
2023-02-06T00:07:21.268Z,33.51
2023-02-06T00:09:47.600Z,33.56
2023-02-06T00:12:13.930Z,33.58
2023-02-06T00:14:40.286Z,33.59
2023-02-06T00:17:06.901Z,33.63
2023-02-06T00:19:33.303Z,33.55
2023-02-06T00:21:59.612Z,33.62
2023-02-06T00:24:25.936Z,33.63
2023-02-06T00:26:52.253Z,33.55
2023-02-06T00:29:18.580Z,33.53
2023-02-06T00:31:44.980Z,33.50
2023-02-06T00:34:11.324Z,33.54
2023-02-06T00:36:37.637Z,33.47
2023-02-06T00:39:04.252Z,33.43
2023-02-06T00:41:30.565Z,33.30
2023-02-06T00:43:56.905Z,33.24
2023-02-06T00:46:23.268Z,33.26
2023-02-06T00:48:49.646Z,33.39
2023-02-06T00:51:15.961Z,33.34
2023-02-06T00:53:42.306Z,33.28
2023-02-06T00:56:08.606Z,33.30
2023-02-06T00:58:34.936Z,33.35
2023-02-06T01:01:01.248Z,33.35
2023-02-06T01:03:27.591Z,33.41
2023-02-06T01:05:53.899Z,33.33
2023-02-06T01:08:20.226Z,33.42
2023-02-06T01:10:46.534Z,33.37
2023-02-06T01:13:12.915Z,33.41
2023-02-06T01:15:39.221Z,33.33
2023-02-06T01:18:05.726Z,33.49
2023-02-06T01:20:32.542Z,33.51
2023-02-06T01:22:58.847Z,33.29
2023-02-06T01:25:25.163Z,33.28
2023-02-06T01:27:51.552Z,33.35
2023-02-06T01:30:17.889Z,33.31
2023-02-06T01:32:44.473Z,33.52
2023-02-06T01:35:10.968Z,33.47
2023-02-06T01:37:37.342Z,33.26
2023-02-06T01:40:04.418Z,33.38
2023-02-06T01:42:30.728Z,33.56
2023-02-06T01:45:15.770Z,33.41
2023-02-06T01:47:42.067Z,33.37
2023-02-06T01:50:08.385Z,33.41
2023-02-06T01:52:34.691Z,33.50
2023-02-06T01:55:01.339Z,33.60
2023-02-06T01:57:27.661Z,33.46
2023-02-06T01:59:54.827Z,33.56
2023-02-06T02:02:21.270Z,33.63
2023-02-06T02:04:47.635Z,33.51
2023-02-06T02:07:13.900Z,33.55
2023-02-06T02:09:40.283Z,33.54
2023-02-06T02:12:06.777Z,33.52
2023-02-06T02:14:33.178Z,33.47
2023-02-06T02:17:11.693Z,33.54
2023-02-06T02:19:41.066Z,33.54
2023-02-06T02:22:16.443Z,33.59
2023-02-06T02:24:45.577Z,33.48
2023-02-06T02:27:21.257Z,33.60
2023-02-06T02:30:01.354Z,33.65
2023-02-06T02:32:36.724Z,33.64
2023-02-06T02:35:15.173Z,33.69
2023-02-06T02:38:01.262Z,33.50
2023-02-06T02:40:36.893Z,33.50
2023-02-06T02:43:14.213Z,33.76
2023-02-06T02:45:40.450Z,33.70
2023-02-06T02:48:26.943Z,33.57
2023-02-06T02:50:53.881Z,33.65
2023-02-06T02:53:20.160Z,33.60
2023-02-06T02:55:46.438Z,33.79
2023-02-06T02:58:13.639Z,33.68
2023-02-06T03:00:43.210Z,33.76
2023-02-06T03:03:10.939Z,33.82
2023-02-06T03:05:39.887Z,33.79
2023-02-06T03:08:29.406Z,33.96
2023-02-06T03:10:55.622Z,33.95
2023-02-06T03:13:43.001Z,33.74
2023-02-06T03:16:21.442Z,33.73
2023-02-06T03:18:53.311Z,33.67
2023-02-06T03:21:20.222Z,33.71
2023-02-06T03:23:47.579Z,33.57
2023-02-06T03:26:14.294Z,33.73
2023-02-06T03:28:44.576Z,33.71
2023-02-06T03:31:12.048Z,33.71
2023-02-06T03:33:40.347Z,33.71
2023-02-06T03:36:06.801Z,33.46
2023-02-06T03:38:33.347Z,33.14
2023-02-06T03:41:05.542Z,33.20
2023-02-06T03:43:31.908Z,33.54
2023-02-06T03:46:00.421Z,33.49
2023-02-06T03:48:31.426Z,33.54
2023-02-06T03:50:57.768Z,33.56
2023-02-06T03:53:24.075Z,33.54
2023-02-06T03:55:50.680Z,33.49
2023-02-06T03:58:16.992Z,33.65
2023-02-06T04:00:43.386Z,33.48
2023-02-06T04:03:12.971Z,33.67
2023-02-06T04:05:39.311Z,33.57
2023-02-06T04:08:05.647Z,33.51
2023-02-06T04:10:31.962Z,33.30
2023-02-06T04:12:58.277Z,33.50
2023-02-06T04:15:24.596Z,33.79
2023-02-06T04:17:59.882Z,33.72
2023-02-06T04:20:27.155Z,33.65
2023-02-06T04:22:53.466Z,34.05
2023-02-06T04:25:19.826Z,34.07
2023-02-06T04:27:46.325Z,33.95
2023-02-06T04:30:12.995Z,33.94
2023-02-06T04:32:39.309Z,34.10
2023-02-06T04:35:05.650Z,33.98
2023-02-06T04:37:32.231Z,33.87
2023-02-06T04:39:58.587Z,34.08
2023-02-06T04:42:25.060Z,33.90
2023-02-06T04:44:51.391Z,33.85
2023-02-06T04:47:17.711Z,33.67
2023-02-06T04:49:44.044Z,33.90
2023-02-06T04:52:10.473Z,33.72
2023-02-06T04:54:36.846Z,33.70
2023-02-06T04:57:03.160Z,33.49
2023-02-06T04:59:29.489Z,33.90
2023-02-06T05:01:55.794Z,33.67
2023-02-06T05:04:22.114Z,33.57
2023-02-06T05:06:48.471Z,33.50
2023-02-06T05:09:14.788Z,33.86
2023-02-06T05:11:41.135Z,33.72
2023-02-06T05:14:07.471Z,33.86
2023-02-06T05:16:33.803Z,34.03
2023-02-06T05:19:00.119Z,33.99
2023-02-06T05:21:26.461Z,33.99
2023-02-06T05:23:52.772Z,34.10
2023-02-06T05:26:19.108Z,33.87
2023-02-06T05:28:45.427Z,33.86
2023-02-06T05:31:18.236Z,33.93
2023-02-06T05:33:45.089Z,33.78
2023-02-06T05:36:11.407Z,33.53
2023-02-06T05:38:37.721Z,33.46
2023-02-06T05:41:04.047Z,33.50
2023-02-06T05:43:30.392Z,33.61
2023-02-06T05:45:56.731Z,33.47
2023-02-06T05:48:23.056Z,33.56
2023-02-06T05:50:49.559Z,33.74
2023-02-06T05:53:16.374Z,33.50
2023-02-06T05:55:42.955Z,33.53
2023-02-06T05:58:09.268Z,33.53
2023-02-06T06:00:35.845Z,33.54
2023-02-06T06:03:02.156Z,33.55
2023-02-06T06:05:29.308Z,33.45
2023-02-06T06:07:55.613Z,33.52
2023-02-06T06:10:21.955Z,33.43
2023-02-06T06:12:48.264Z,33.53
2023-02-06T06:15:14.591Z,33.66
2023-02-06T06:17:40.908Z,33.69
2023-02-06T06:20:07.288Z,33.88
2023-02-06T06:22:33.603Z,34.01
2023-02-06T06:24:59.969Z,34.07
2023-02-06T06:27:26.289Z,34.21
2023-02-06T06:29:52.621Z,34.22
2023-02-06T06:32:19.176Z,33.96
2023-02-06T06:34:45.522Z,34.07
2023-02-06T06:37:11.830Z,33.69
2023-02-06T06:39:38.173Z,33.68
2023-02-06T06:42:04.490Z,33.68
2023-02-06T06:44:31.157Z,33.56
2023-02-06T06:46:57.490Z,33.62
2023-02-06T06:49:24.141Z,33.61
2023-02-06T06:51:50.491Z,33.43
2023-02-06T06:54:16.873Z,33.49
2023-02-06T06:56:43.221Z,33.50
2023-02-06T06:59:09.587Z,33.33
2023-02-06T07:01:35.957Z,33.37
2023-02-06T07:04:02.271Z,33.32
2023-02-06T07:06:29.103Z,33.41
2023-02-06T07:08:55.407Z,33.28
2023-02-06T07:11:21.761Z,33.32
2023-02-06T07:13:48.085Z,33.35
2023-02-06T07:16:14.528Z,33.22
2023-02-06T07:18:42.845Z,33.32
2023-02-06T07:21:09.327Z,33.24
2023-02-06T07:23:38.741Z,33.42
2023-02-06T07:26:05.108Z,33.18
2023-02-06T07:28:31.596Z,33.52
2023-02-06T07:31:01.417Z,33.46
2023-02-06T07:33:27.831Z,33.53
2023-02-06T07:35:54.155Z,33.32
2023-02-06T07:38:20.469Z,33.33
2023-02-06T07:40:46.841Z,33.40
2023-02-06T07:43:13.402Z,33.30
2023-02-06T07:45:39.962Z,33.12
2023-02-06T07:48:06.461Z,33.22
2023-02-06T07:50:32.812Z,33.24
2023-02-06T07:52:59.119Z,33.42
2023-02-06T07:55:25.457Z,33.20
2023-02-06T07:57:51.787Z,33.39
2023-02-06T08:00:18.151Z,33.55
2023-02-06T08:02:44.534Z,33.52
2023-02-06T08:05:10.873Z,33.25
2023-02-06T08:07:37.196Z,33.40
2023-02-06T08:10:03.664Z,33.22
2023-02-06T08:12:30.125Z,33.25
2023-02-06T08:14:56.455Z,33.26
2023-02-06T08:17:22.784Z,33.25
2023-02-06T08:19:49.109Z,33.12
2023-02-06T08:22:15.433Z,33.00
2023-02-06T08:24:41.744Z,32.92
2023-02-06T08:27:08.073Z,32.78
2023-02-06T08:29:40.322Z,32.71
2023-02-06T08:32:06.658Z,32.65
2023-02-06T08:34:33.343Z,32.88
2023-02-06T08:36:59.664Z,33.04
2023-02-06T08:39:25.968Z,32.93
2023-02-06T08:41:52.544Z,32.84
2023-02-06T08:44:18.876Z,32.78
2023-02-06T08:46:45.620Z,32.71
2023-02-06T08:49:12.910Z,32.76
2023-02-06T08:51:39.241Z,32.83
2023-02-06T08:54:06.318Z,32.83
2023-02-06T08:56:32.980Z,32.94
2023-02-06T08:58:59.706Z,32.82
2023-02-06T09:01:26.386Z,32.80
2023-02-06T09:03:55.972Z,32.94
2023-02-06T09:06:22.304Z,32.78
2023-02-06T09:08:48.626Z,32.90
2023-02-06T09:11:15.702Z,33.01
2023-02-06T09:13:42.425Z,32.92
2023-02-06T09:16:08.868Z,32.85
2023-02-06T09:18:35.385Z,32.49
2023-02-06T09:21:10.115Z,32.29
2023-02-06T09:23:36.549Z,32.17
2023-02-06T09:26:02.939Z,32.02
2023-02-06T09:28:29.290Z,31.83
2023-02-06T09:30:55.873Z,31.91
2023-02-06T09:33:22.286Z,31.75
2023-02-06T09:35:48.638Z,31.73
2023-02-06T09:38:14.971Z,31.68
2023-02-06T09:40:41.311Z,31.76
2023-02-06T09:43:07.641Z,31.81
2023-02-06T09:45:34.338Z,31.45
2023-02-06T09:48:06.452Z,31.52
2023-02-06T09:50:40.106Z,31.81
2023-02-06T09:53:11.170Z,31.82
2023-02-06T09:55:41.629Z,31.91
2023-02-06T09:58:19.067Z,32.10
2023-02-06T10:00:53.235Z,32.03
2023-02-06T10:03:35.448Z,31.88
2023-02-06T10:06:07.942Z,31.97
2023-02-06T10:08:36.068Z,31.94
2023-02-06T10:11:03.774Z,32.17
2023-02-06T10:13:34.380Z,32.05
2023-02-06T10:16:03.424Z,32.02
2023-02-06T10:18:36.684Z,32.13
2023-02-06T10:21:06.909Z,32.05
2023-02-06T10:23:47.722Z,31.85
2023-02-06T10:26:18.140Z,32.03
2023-02-06T10:28:45.326Z,32.03
2023-02-06T10:31:20.898Z,32.13
2023-02-06T10:33:55.811Z,32.14
2023-02-06T10:36:25.995Z,32.25
2023-02-06T10:39:11.411Z,32.22
2023-02-06T10:42:05.219Z,32.18
2023-02-06T10:44:34.499Z,32.43
2023-02-06T10:47:00.932Z,32.21
2023-02-06T10:49:30.341Z,32.21
2023-02-06T10:51:57.805Z,32.21
2023-02-06T10:54:25.181Z,32.21
2023-02-06T10:56:52.174Z,31.88
2023-02-06T10:59:22.310Z,31.92
2023-02-06T11:01:49.087Z,31.96
2023-02-06T11:04:16.870Z,31.89
2023-02-06T11:06:43.277Z,31.85
2023-02-06T11:09:09.859Z,31.96
2023-02-06T11:11:37.120Z,31.90
2023-02-06T11:14:07.762Z,32.02
2023-02-06T11:16:36.085Z,31.86
2023-02-06T11:19:02.609Z,31.81
2023-02-06T11:21:41.114Z,31.83
2023-02-06T11:24:08.145Z,31.65
2023-02-06T11:26:39.287Z,31.59
2023-02-06T11:29:09.762Z,31.54
2023-02-06T11:31:49.974Z,31.63
2023-02-06T11:34:23.443Z,31.52
2023-02-06T11:36:54.055Z,31.36
2023-02-06T11:39:25.362Z,31.52
2023-02-06T11:42:00.681Z,31.44
2023-02-06T11:44:27.781Z,31.32
2023-02-06T11:46:54.124Z,31.26
2023-02-06T11:49:20.375Z,31.30
2023-02-06T11:51:54.145Z,31.27
2023-02-06T11:54:21.816Z,31.35
2023-02-06T11:56:59.395Z,31.07
2023-02-06T11:59:27.626Z,31.10
2023-02-06T12:01:54.050Z,31.15
2023-02-06T12:04:23.796Z,31.06
2023-02-06T12:06:54.333Z,30.81
2023-02-06T12:09:20.656Z,30.97
2023-02-06T12:11:52.110Z,30.92
2023-02-06T12:14:30.300Z,30.91
2023-02-06T12:16:56.939Z,30.69
2023-02-06T12:19:35.375Z,31.00
2023-02-06T12:22:03.781Z,31.05
2023-02-06T12:24:31.393Z,31.22
2023-02-06T12:27:02.426Z,31.23
2023-02-06T12:29:33.344Z,31.33
2023-02-06T12:32:00.166Z,31.28
2023-02-06T12:34:28.722Z,31.34
2023-02-06T12:37:00.328Z,31.35
2023-02-06T12:39:30.185Z,31.28
2023-02-06T12:42:15.466Z,31.12
2023-02-06T12:45:01.723Z,31.32
2023-02-06T12:47:30.559Z,31.00
2023-02-06T12:50:00.022Z,31.14
2023-02-06T12:52:31.365Z,31.17
2023-02-06T12:55:01.278Z,31.49
2023-02-06T12:57:28.054Z,31.55
2023-02-06T13:00:03.778Z,31.44
2023-02-06T13:02:42.108Z,31.62
2023-02-06T13:05:15.825Z,31.89
2023-02-06T13:07:49.421Z,31.66
2023-02-06T13:10:19.566Z,31.76
2023-02-06T13:12:52.662Z,31.87
2023-02-06T13:15:37.688Z,32.00
2023-02-06T13:18:24.149Z,31.91
2023-02-06T13:21:09.261Z,31.94
2023-02-06T13:23:35.601Z,31.99
2023-02-06T13:26:03.188Z,31.73
2023-02-06T13:28:29.510Z,31.97
2023-02-06T13:30:59.606Z,31.92
2023-02-06T13:33:26.012Z,31.94
2023-02-06T13:35:59.092Z,31.94
2023-02-06T13:38:35.491Z,32.12
2023-02-06T13:41:14.417Z,31.95
2023-02-06T13:44:00.222Z,32.08
2023-02-06T13:46:46.827Z,31.90
2023-02-06T13:49:36.294Z,32.22
2023-02-06T13:52:21.395Z,32.16
2023-02-06T13:54:51.664Z,31.99
2023-02-06T13:57:31.438Z,32.37
2023-02-06T14:00:16.872Z,32.26
2023-02-06T14:03:15.576Z,32.23
2023-02-06T14:05:42.328Z,32.25
2023-02-06T14:08:15.730Z,31.78
2023-02-06T14:11:06.972Z,30.08
2023-02-06T14:13:36.399Z,31.87
2023-02-06T14:16:02.736Z,31.72
2023-02-06T14:18:46.958Z,31.87
2023-02-06T14:21:35.317Z,31.73
2023-02-06T14:24:05.794Z,31.68
2023-02-06T14:26:35.196Z,31.76
2023-02-06T14:29:20.671Z,31.85
2023-02-06T14:31:46.993Z,32.00
2023-02-06T14:34:25.300Z,31.83
2023-02-06T14:36:54.800Z,31.98
2023-02-06T14:39:33.817Z,32.12
2023-02-06T14:42:00.226Z,32.00
2023-02-06T14:44:30.033Z,32.04
2023-02-06T14:46:56.386Z,32.08
2023-02-06T14:49:29.970Z,32.16
2023-02-06T14:51:56.322Z,32.15
2023-02-06T14:54:28.786Z,32.01
2023-02-06T14:56:55.457Z,32.20
2023-02-06T14:59:21.809Z,32.24
2023-02-06T15:01:48.996Z,32.12
2023-02-06T15:04:16.408Z,31.92
2023-02-06T15:06:44.366Z,32.16
2023-02-06T15:09:24.017Z,32.33
2023-02-06T15:11:51.181Z,32.43
2023-02-06T15:14:19.870Z,32.44
2023-02-06T15:16:46.881Z,32.60
2023-02-06T15:19:16.914Z,32.45
2023-02-06T15:21:43.293Z,32.85
2023-02-06T15:24:14.745Z,32.68
2023-02-06T15:26:47.149Z,32.73
2023-02-06T15:29:22.905Z,32.66
2023-02-06T15:31:50.100Z,32.82
2023-02-06T15:34:17.772Z,32.72
2023-02-06T15:36:44.087Z,33.15
2023-02-06T15:39:10.889Z,32.92
2023-02-06T15:41:37.219Z,33.02
2023-02-06T15:44:09.332Z,33.04
2023-02-06T15:46:35.665Z,33.13
2023-02-06T15:49:02.012Z,33.13
2023-02-06T15:51:41.182Z,33.09
2023-02-06T15:54:09.360Z,33.05
2023-02-06T15:56:36.937Z,33.17
2023-02-06T15:59:04.058Z,33.00
2023-02-06T16:01:31.160Z,33.19
2023-02-06T16:03:59.731Z,32.94
2023-02-06T16:06:26.127Z,32.97
2023-02-06T16:08:53.961Z,33.07
2023-02-06T16:11:39.166Z,32.96
2023-02-06T16:14:05.640Z,32.92
2023-02-06T16:16:31.977Z,32.96
2023-02-06T16:18:58.532Z,33.10
2023-02-06T16:21:27.001Z,33.04
2023-02-06T16:24:03.062Z,33.24
2023-02-06T16:26:30.136Z,32.95
2023-02-06T16:28:56.462Z,32.99
2023-02-06T16:31:23.174Z,33.00
2023-02-06T16:33:50.620Z,33.15
2023-02-06T16:36:17.451Z,32.98
2023-02-06T16:38:48.435Z,32.91
2023-02-06T16:41:24.394Z,33.07
2023-02-06T16:43:50.882Z,32.95
2023-02-06T16:46:17.225Z,33.09
2023-02-06T16:48:43.585Z,32.98
2023-02-06T16:51:11.983Z,33.08
2023-02-06T16:53:38.305Z,32.96
2023-02-06T16:56:04.688Z,33.24
2023-02-06T16:58:32.310Z,32.94
2023-02-06T17:00:58.653Z,32.93
2023-02-06T17:03:25.347Z,33.01
2023-02-06T17:05:53.733Z,33.04
2023-02-06T17:08:21.733Z,33.02
2023-02-06T17:10:48.100Z,33.28
2023-02-06T17:13:15.364Z,33.12
2023-02-06T17:15:41.777Z,33.35
2023-02-06T17:18:09.998Z,33.38
2023-02-06T17:20:37.415Z,33.48
2023-02-06T17:23:04.071Z,33.62
2023-02-06T17:25:30.450Z,33.44
2023-02-06T17:27:56.811Z,33.16
2023-02-06T17:30:23.503Z,33.20
2023-02-06T17:32:49.859Z,33.23
2023-02-06T17:35:16.417Z,33.17
2023-02-06T17:37:44.950Z,33.08
2023-02-06T17:40:18.192Z,32.96
2023-02-06T17:42:44.533Z,32.94
2023-02-06T17:45:10.891Z,33.03
2023-02-06T17:47:37.199Z,32.93
2023-02-06T17:50:03.880Z,33.06
2023-02-06T17:52:30.213Z,32.97
2023-02-06T17:54:56.546Z,32.83
2023-02-06T17:57:22.856Z,32.84
2023-02-06T17:59:51.763Z,32.89
2023-02-06T18:02:18.076Z,32.79
2023-02-06T18:04:44.410Z,32.85
2023-02-06T18:07:10.758Z,32.91
2023-02-06T18:09:37.116Z,32.97
2023-02-06T18:12:03.479Z,32.88
2023-02-06T18:14:29.897Z,32.94
2023-02-06T18:16:56.277Z,32.98
2023-02-06T18:19:25.067Z,33.05
2023-02-06T18:21:51.425Z,32.90
2023-02-06T18:24:17.765Z,32.82
2023-02-06T18:26:44.087Z,33.00
2023-02-06T18:29:10.430Z,32.91
2023-02-06T18:31:36.792Z,32.86
2023-02-06T18:34:03.845Z,32.73
2023-02-06T18:36:30.224Z,32.71
2023-02-06T18:38:56.810Z,32.76
2023-02-06T18:41:41.777Z,32.88
2023-02-06T18:44:08.468Z,32.98
2023-02-06T18:46:34.848Z,33.13
2023-02-06T18:49:01.296Z,32.97
2023-02-06T18:51:29.021Z,32.63
2023-02-06T18:53:55.404Z,32.51
2023-02-06T18:56:21.716Z,32.25
2023-02-06T18:58:48.044Z,32.28
2023-02-06T19:01:21.214Z,32.14
2023-02-06T19:03:47.828Z,32.20
2023-02-06T19:06:18.570Z,31.88
2023-02-06T19:08:46.601Z,32.02
2023-02-06T19:11:13.232Z,32.08
2023-02-06T19:13:40.584Z,31.85
2023-02-06T19:16:07.692Z,31.97
2023-02-06T19:18:38.921Z,32.20
2023-02-06T19:21:07.459Z,32.33
2023-02-06T19:23:34.859Z,32.63
2023-02-06T19:26:01.425Z,32.80
2023-02-06T19:28:27.737Z,32.53
2023-02-06T19:30:54.147Z,32.66
2023-02-06T19:33:20.521Z,32.54
2023-02-06T19:35:46.915Z,32.64
2023-02-06T19:38:13.231Z,32.73
2023-02-06T19:40:39.855Z,32.81
2023-02-06T19:43:06.301Z,33.09
2023-02-06T19:45:34.626Z,32.79
2023-02-06T19:48:00.995Z,32.75
2023-02-06T19:50:27.320Z,32.76
2023-02-06T19:52:53.640Z,32.84
2023-02-06T19:55:20.213Z,32.66
2023-02-06T19:57:46.516Z,32.80
2023-02-06T20:00:12.982Z,32.89
2023-02-06T20:02:40.224Z,32.83
2023-02-06T20:05:06.985Z,32.69
2023-02-06T20:07:33.424Z,32.44
2023-02-06T20:09:59.744Z,32.10
2023-02-06T20:12:26.070Z,32.24
2023-02-06T20:17:18.738Z,31.87
2023-02-06T20:19:45.051Z,32.00
2023-02-06T20:22:11.359Z,32.17
2023-02-06T20:24:37.675Z,32.35
2023-02-06T20:27:05.678Z,32.59
2023-02-06T20:29:32.953Z,32.26
2023-02-06T20:31:59.554Z,32.31
2023-02-06T20:34:26.739Z,32.61
2023-02-06T20:36:53.340Z,32.51
2023-02-06T20:39:19.660Z,32.66
2023-02-06T20:41:46.074Z,32.28
2023-02-06T20:44:12.962Z,31.99
2023-02-06T20:46:39.574Z,31.97
2023-02-06T20:49:09.173Z,31.86
2023-02-06T20:51:35.549Z,31.88
2023-02-06T20:54:01.988Z,32.13
2023-02-06T20:56:28.535Z,32.01
2023-02-06T20:58:56.230Z,31.34
2023-02-06T21:01:23.666Z,32.01
2023-02-06T21:03:50.364Z,31.52
2023-02-06T21:06:16.712Z,31.83
2023-02-06T21:08:43.027Z,31.42
2023-02-06T21:11:09.396Z,31.66
2023-02-06T21:13:35.705Z,31.09
2023-02-06T21:16:02.207Z,31.13
2023-02-06T21:18:29.396Z,30.85
2023-02-06T21:20:55.714Z,31.49
2023-02-06T21:23:22.543Z,31.17
2023-02-06T21:25:52.328Z,31.16
2023-02-06T21:28:18.800Z,30.92
2023-02-06T21:30:45.585Z,31.43
2023-02-06T21:33:12.062Z,30.86
2023-02-06T21:35:40.242Z,30.31
2023-02-06T21:38:07.186Z,29.87
2023-02-06T21:40:33.602Z,29.79
2023-02-06T21:42:59.918Z,29.80
2023-02-06T21:45:26.230Z,30.24
2023-02-06T21:47:52.540Z,30.41
2023-02-06T21:50:18.924Z,29.81
2023-02-06T21:52:45.235Z,29.96
2023-02-06T21:55:11.747Z,30.09
2023-02-06T21:57:38.098Z,30.28
2023-02-06T22:00:04.810Z,30.14
2023-02-06T22:02:31.123Z,30.20
2023-02-06T22:04:59.588Z,30.13
2023-02-06T22:07:26.045Z,30.22
2023-02-06T22:09:52.463Z,29.71
2023-02-06T22:12:18.767Z,29.11
2023-02-06T22:14:45.110Z,28.68
2023-02-06T22:17:11.455Z,30.08
2023-02-06T22:19:37.774Z,30.00
2023-02-06T22:22:04.108Z,30.25
2023-02-06T22:24:30.440Z,30.13
2023-02-06T22:26:57.095Z,30.46
2023-02-06T22:29:23.493Z,30.29
2023-02-06T22:31:50.006Z,30.62
2023-02-06T22:34:17.822Z,30.41
2023-02-06T22:36:44.663Z,30.12
2023-02-06T22:39:12.711Z,29.79
2023-02-06T22:41:40.027Z,29.99
2023-02-06T22:44:06.351Z,30.32
2023-02-06T22:46:34.049Z,30.22
2023-02-06T22:49:00.376Z,30.43
2023-02-06T22:51:26.752Z,30.41
2023-02-06T22:53:53.088Z,30.10
2023-02-06T22:56:32.119Z,30.69
2023-02-06T22:58:58.363Z,30.56
2023-02-06T23:01:25.540Z,30.69
2023-02-06T23:03:52.376Z,30.75
2023-02-06T23:06:18.940Z,30.55
2023-02-06T23:08:45.248Z,30.58
2023-02-06T23:11:11.785Z,29.79
2023-02-06T23:13:38.220Z,29.96
2023-02-06T23:16:04.642Z,29.89
2023-02-06T23:18:31.069Z,30.60
2023-02-06T23:21:01.165Z,30.33
2023-02-06T23:23:27.682Z,30.08
2023-02-06T23:25:54.081Z,29.99
2023-02-06T23:28:20.764Z,30.37
2023-02-06T23:30:47.146Z,30.10
2023-02-06T23:33:13.528Z,30.12
2023-02-06T23:35:40.024Z,30.19
2023-02-06T23:38:06.471Z,30.03
2023-02-06T23:40:33.111Z,29.80
2023-02-06T23:42:59.488Z,29.96
2023-02-06T23:45:25.931Z,29.89
2023-02-06T23:47:52.348Z,30.31
2023-02-06T23:50:18.689Z,29.82
2023-02-06T23:52:45.020Z,29.70
2023-02-06T23:55:11.496Z,29.98
2023-02-06T23:57:38.142Z,29.88
